Time,TemperatureF,DewpointF,PressureIn,WindDirection,WindDirectionDegrees,WindSpeedMPH,WindSpeedGustMPH,Humidity,HourlyPrecipIn,Conditions,Clouds,dailyrainin,SoftwareType,DateUTC
2013-06-10 00:02:00,71.0,67.0,29.67,NW,315,0.0,0.0,87,0.00,,,0.06,,2013-06-10 05:02:00,
2013-06-10 00:12:00,71.0,67.0,29.67,NW,315,0.0,0.0,87,0.00,,,0.06,,2013-06-10 05:12:00,
2013-06-10 00:22:00,71.0,67.0,29.67,NW,315,0.0,0.0,87,0.00,,,0.06,,2013-06-10 05:22:00,
2013-06-10 00:32:00,71.0,67.0,29.68,NW,315,0.0,0.0,88,0.00,,,0.06,,2013-06-10 05:32:00,
2013-06-10 00:42:00,71.0,67.0,29.68,NW,315,0.0,0.0,88,0.00,,,0.06,,2013-06-10 05:42:00,
2013-06-10 00:52:00,70.0,67.0,29.68,NW,315,0.0,0.0,89,0.00,,,0.06,,2013-06-10 05:52:00,
2013-06-10 01:02:00,70.0,67.0,29.68,NW,315,0.0,0.0,89,0.00,,,0.06,,2013-06-10 06:02:00,
2013-06-10 01:12:00,70.0,67.0,29.68,NW,315,0.0,0.0,89,0.00,,,0.06,,2013-06-10 06:12:00,
2013-06-10 01:22:00,70.0,67.0,29.68,NW,315,0.0,0.0,91,0.00,,,0.06,,2013-06-10 06:22:00,
2013-06-10 01:32:00,69.0,67.0,29.68,South,180,0.0,0.0,92,0.00,,,0.06,,2013-06-10 06:32:00,
2013-06-10 01:42:00,69.0,67.0,29.68,South,180,0.0,0.0,92,0.00,,,0.06,,2013-06-10 06:42:00,
2013-06-10 01:52:00,69.0,67.0,29.68,South,180,0.0,0.0,92,0.00,,,0.06,,2013-06-10 06:52:00,
2013-06-10 02:02:00,69.0,67.0,29.68,South,180,0.0,0.0,93,0.00,,,0.06,,2013-06-10 07:02:00,
2013-06-10 02:12:00,69.0,67.0,29.68,South,180,0.0,0.0,93,0.00,,,0.06,,2013-06-10 07:12:00,
2013-06-10 02:22:00,69.0,67.0,29.68,South,180,0.0,0.0,93,0.00,,,0.06,,2013-06-10 07:22:00,
2013-06-10 02:32:00,69.0,67.0,29.68,West,270,0.0,0.0,94,0.00,,,0.06,,2013-06-10 07:32:00,
2013-06-10 02:42:00,69.0,67.0,29.68,West,270,0.0,0.0,94,0.00,,,0.06,,2013-06-10 07:42:00,
2013-06-10 02:52:00,68.0,66.0,29.66,North,360,0.0,0.0,94,0.00,,,0.06,,2013-06-10 07:52:00,
2013-06-10 03:02:00,68.0,66.0,29.66,North,360,0.0,0.0,94,0.00,,,0.06,,2013-06-10 08:02:00,
2013-06-10 03:12:00,68.0,66.0,29.66,North,360,0.0,0.0,94,0.00,,,0.06,,2013-06-10 08:12:00,
2013-06-10 03:22:00,68.0,66.0,29.66,North,360,0.0,0.0,94,0.00,,,0.06,,2013-06-10 08:22:00,
2013-06-10 03:32:00,67.0,66.0,29.67,North,360,0.0,0.0,95,0.00,,,0.06,,2013-06-10 08:32:00,
2013-06-10 03:42:00,67.0,66.0,29.67,North,360,0.0,0.0,95,0.00,,,0.06,,2013-06-10 08:42:00,
2013-06-10 03:52:00,67.0,66.0,29.67,North,360,0.0,0.0,96,0.00,,,0.06,,2013-06-10 08:52:00,
2013-06-10 04:02:00,67.0,66.0,29.67,NE,45,0.0,0.0,96,0.00,,,0.06,,2013-06-10 09:02:00,
2013-06-10 04:12:00,67.0,66.0,29.67,NE,45,0.0,0.0,96,0.00,,,0.06,,2013-06-10 09:12:00,
2013-06-10 04:22:00,67.0,66.0,29.66,West,270,0.0,0.0,97,0.00,,,0.06,,2013-06-10 09:22:00,
2013-06-10 04:32:00,67.0,66.0,29.66,West,270,0.0,0.0,97,0.00,,,0.06,,2013-06-10 09:32:00,
2013-06-10 04:42:00,67.0,66.0,29.66,West,270,0.0,0.0,97,0.00,,,0.06,,2013-06-10 09:42:00,
2013-06-10 04:53:00,67.0,66.0,29.66,West,270,0.0,0.0,97,0.00,,,0.06,,2013-06-10 09:53:00,
2013-06-10 05:03:00,66.0,65.0,29.68,SW,225,0.0,0.0,97,0.00,,,0.06,,2013-06-10 10:03:00,
2013-06-10 05:12:00,66.0,65.0,29.68,SW,225,0.0,0.0,97,0.00,,,0.06,,2013-06-10 10:12:00,
2013-06-10 05:20:00,66.0,66.0,29.69,NW,315,0.0,0.0,100,0.00,,,0.06,,2013-06-10 10:20:00,
2013-06-10 05:22:00,66.0,66.0,29.69,NE,45,0.0,0.0,100,0.00,,,0.06,,2013-06-10 10:22:00,
2013-06-10 05:33:00,66.0,66.0,29.69,NW,315,0.0,0.0,100,0.00,,,0.06,,2013-06-10 10:33:00,
2013-06-10 05:42:00,66.0,66.0,29.69,NW,315,0.0,0.0,100,0.00,,,0.06,,2013-06-10 10:42:00,
2013-06-10 05:52:00,66.0,66.0,29.69,NW,315,0.0,0.0,100,0.00,,,0.06,,2013-06-10 10:52:00,
2013-06-10 06:02:00,66.0,66.0,29.69,NW,315,0.0,0.0,100,0.00,,,0.06,,2013-06-10 11:02:00,
2013-06-10 06:12:00,66.0,66.0,29.69,NW,315,0.0,0.0,100,0.00,,,0.06,,2013-06-10 11:12:00,
2013-06-10 06:32:00,65.0,65.0,29.70,North,360,0.0,0.0,99,0.00,,,0.06,,2013-06-10 11:32:00,
2013-06-10 06:42:00,65.0,65.0,29.70,North,360,0.0,0.0,99,0.00,,,0.06,,2013-06-10 11:42:00,
2013-06-10 06:52:00,65.0,65.0,29.70,North,360,0.0,0.0,99,0.00,,,0.06,,2013-06-10 11:52:00,
2013-06-10 07:02:00,66.0,66.0,29.71,North,360,0.0,0.0,99,0.00,,,0.06,,2013-06-10 12:02:00,
2013-06-10 07:12:00,66.0,66.0,29.71,North,360,0.0,0.0,99,0.00,,,0.06,,2013-06-10 12:12:00,
2013-06-10 07:22:00,68.0,68.0,29.72,NW,315,0.0,0.0,99,0.00,,,0.06,,2013-06-10 12:22:00,
2013-06-10 07:32:00,72.0,72.0,29.72,NE,45,0.0,0.0,99,0.00,,,0.06,,2013-06-10 12:32:00,
2013-06-10 07:42:00,72.0,72.0,29.72,NE,45,0.0,0.0,99,0.00,,,0.06,,2013-06-10 12:42:00,
2013-06-10 07:52:00,73.0,73.0,29.72,NE,45,0.0,0.0,99,0.00,,,0.06,,2013-06-10 12:52:00,
2013-06-10 08:02:00,75.0,75.0,29.71,NE,45,0.0,0.0,99,0.00,,,0.06,,2013-06-10 13:02:00,
2013-06-10 08:32:00,79.0,75.0,29.72,NW,315,0.0,0.0,87,0.00,,,0.04,,2013-06-10 13:32:00,
2013-06-10 08:52:00,79.0,71.0,29.72,North,360,0.0,0.0,76,0.00,,,0.04,,2013-06-10 13:52:00,
2013-06-10 09:02:00,87.0,74.0,29.72,NW,315,0.0,0.0,65,0.00,,,0.01,,2013-06-10 14:02:00,
2013-06-10 09:22:00,87.0,70.0,29.73,SE,135,2.0,5.0,57,0.00,,,0.00,,2013-06-10 14:22:00,
2013-06-10 09:32:00,86.0,69.0,29.73,South,180,0.0,6.0,58,0.00,,,0.00,,2013-06-10 14:32:00,
2013-06-10 10:02:00,85.0,68.0,29.73,SE,135,5.0,9.0,56,0.00,,,0.00,,2013-06-10 15:02:00,
2013-06-10 10:12:00,85.0,68.0,29.73,SE,135,5.0,9.0,56,0.00,,,0.00,,2013-06-10 15:12:00,
2013-06-10 10:22:00,87.0,69.0,29.72,SE,135,2.0,10.0,55,0.00,,,0.00,,2013-06-10 15:22:00,
2013-06-10 10:33:00,88.0,68.0,29.72,East,90,1.0,8.0,52,0.00,,,0.00,,2013-06-10 15:33:00,
2013-06-10 10:43:00,88.0,68.0,29.72,East,90,1.0,8.0,52,0.00,,,0.00,,2013-06-10 15:43:00,
2013-06-10 10:53:00,88.0,68.0,29.72,East,90,1.0,8.0,52,0.00,,,0.00,,2013-06-10 15:53:00,
2013-06-10 11:03:00,88.0,66.0,29.72,SE,135,11.0,13.0,48,0.00,,,0.00,,2013-06-10 16:03:00,
2013-06-10 11:12:00,88.0,66.0,29.72,SE,135,11.0,13.0,48,0.00,,,0.00,,2013-06-10 16:12:00,
2013-06-10 11:23:00,89.0,67.0,29.72,South,180,4.0,8.0,48,0.00,,,0.00,,2013-06-10 16:23:00,
2013-06-10 11:33:00,89.0,67.0,29.72,South,180,4.0,8.0,48,0.00,,,0.00,,2013-06-10 16:33:00,
2013-06-10 11:43:00,89.0,67.0,29.72,South,180,4.0,8.0,48,0.00,,,0.00,,2013-06-10 16:43:00,
2013-06-10 11:52:00,90.0,66.0,29.72,South,180,6.0,11.0,46,0.00,,,0.00,,2013-06-10 16:52:00,
2013-06-10 12:03:00,89.0,65.0,29.72,SSE,158,7.0,13.0,46,0.00,,,0.00,,2013-06-10 17:03:00,
2013-06-10 12:14:00,89.0,65.0,29.72,SSE,158,7.0,13.0,46,0.00,,,0.00,,2013-06-10 17:14:00,
2013-06-10 12:27:00,89.0,65.0,29.72,SSE,158,7.0,13.0,46,0.00,,,0.00,,2013-06-10 17:27:00,
2013-06-10 12:38:00,91.0,66.0,29.71,East,90,1.0,9.0,44,0.00,,,0.00,,2013-06-10 17:38:00,
2013-06-10 12:48:00,94.0,65.0,29.72,East,90,2.0,8.0,39,0.00,,,0.00,,2013-06-10 17:48:00,
2013-06-10 12:58:00,94.0,65.0,29.72,East,90,2.0,8.0,39,0.00,,,0.00,,2013-06-10 17:58:00,
2013-06-10 13:07:00,94.0,65.0,29.72,East,90,2.0,8.0,39,0.00,,,0.00,,2013-06-10 18:07:00,
2013-06-10 13:14:00,94.0,65.0,29.72,East,90,2.0,8.0,39,0.00,,,0.00,,2013-06-10 18:14:00,
2013-06-10 13:25:00,94.0,65.0,29.72,East,90,2.0,8.0,39,0.00,,,0.00,,2013-06-10 18:25:00,
2013-06-10 13:34:00,92.0,63.0,29.70,SE,135,2.0,13.0,39,0.00,,,0.00,,2013-06-10 18:34:00,
2013-06-10 13:55:00,94.0,64.0,29.69,East,90,1.0,11.0,38,0.00,,,0.00,,2013-06-10 18:55:00,
2013-06-10 14:03:00,94.0,64.0,29.69,East,90,1.0,11.0,38,0.00,,,0.00,,2013-06-10 19:03:00,
2013-06-10 14:13:00,94.0,64.0,29.69,East,90,1.0,11.0,38,0.00,,,0.00,,2013-06-10 19:13:00,
2013-06-10 14:22:00,96.0,63.0,29.69,South,180,2.0,6.0,34,0.00,,,0.00,,2013-06-10 19:22:00,
2013-06-10 14:33:00,97.0,65.0,29.69,East,90,1.0,5.0,35,0.00,,,0.00,,2013-06-10 19:33:00,
2013-06-10 14:43:00,97.0,65.0,29.69,East,90,1.0,5.0,35,0.00,,,0.00,,2013-06-10 19:43:00,
2013-06-10 14:53:00,97.0,60.0,29.69,East,90,2.0,8.0,30,0.00,,,0.00,,2013-06-10 19:53:00,
2013-06-10 15:03:00,97.0,58.0,29.68,NE,45,2.0,11.0,28,0.00,,,0.00,,2013-06-10 20:03:00,
2013-06-10 15:22:00,97.0,59.0,29.69,SE,135,1.0,11.0,29,0.00,,,0.00,,2013-06-10 20:22:00,
2013-06-10 15:32:00,99.0,59.0,29.68,South,180,0.0,8.0,27,0.00,,,0.00,,2013-06-10 20:32:00,
2013-06-10 16:23:00,100.0,57.0,29.68,NE,45,3.0,7.0,24,0.00,,,0.00,,2013-06-10 21:23:00,
2013-06-10 16:33:00,100.0,59.0,29.67,SSE,158,2.0,8.0,26,0.00,,,0.00,,2013-06-10 21:33:00,
2013-06-10 16:53:00,100.0,61.0,29.68,NE,45,3.0,8.0,28,0.00,,,0.00,,2013-06-10 21:53:00,
2013-06-10 17:22:00,100.0,58.0,29.67,NE,45,3.0,7.0,25,0.00,,,0.00,,2013-06-10 22:22:00,
2013-06-10 17:52:00,99.0,49.0,29.67,NE,45,4.0,8.0,19,0.00,,,0.00,,2013-06-10 22:52:00,
2013-06-10 18:02:00,100.0,55.0,29.67,SW,225,1.0,8.0,23,0.00,,,0.00,,2013-06-10 23:02:00,
2013-06-10 18:22:00,100.0,58.0,29.67,SE,135,0.0,6.0,25,0.00,,,0.00,,2013-06-10 23:22:00,
2013-06-10 18:52:00,98.0,58.0,29.66,East,90,0.0,7.0,27,0.00,,,0.00,,2013-06-10 23:52:00,
2013-06-10 19:02:00,99.0,58.0,29.67,North,360,1.0,8.0,26,0.00,,,0.00,,2013-06-11 00:02:00,
2013-06-10 19:12:00,98.0,61.0,29.67,North,360,0.0,8.0,30,0.00,,,0.00,,2013-06-11 00:12:00,
2013-06-10 19:22:00,98.0,61.0,29.67,North,360,0.0,8.0,30,0.00,,,0.00,,2013-06-11 00:22:00,
2013-06-10 19:32:00,96.0,60.0,29.66,East,90,2.0,6.0,31,0.00,,,0.00,,2013-06-11 00:32:00,
2013-06-10 19:52:00,96.0,60.0,29.66,North,360,0.0,4.0,31,0.00,,,0.00,,2013-06-11 00:52:00,
2013-06-10 20:02:00,97.0,62.0,29.67,NW,315,0.0,2.0,32,0.00,,,0.00,,2013-06-11 01:02:00,
2013-06-10 20:12:00,97.0,62.0,29.67,NW,315,0.0,2.0,32,0.00,,,0.00,,2013-06-11 01:12:00,
2013-06-10 20:22:00,94.0,62.0,29.67,NW,315,0.0,1.0,35,0.00,,,0.00,,2013-06-11 01:22:00,
2013-06-10 20:32:00,90.0,62.0,29.67,East,90,0.0,0.0,40,0.00,,,0.00,,2013-06-11 01:32:00,
2013-06-10 21:02:00,83.0,64.0,29.67,NW,315,0.0,0.0,53,0.00,,,0.00,,2013-06-11 02:02:00,
2013-06-10 21:12:00,83.0,64.0,29.67,NW,315,0.0,0.0,53,0.00,,,0.00,,2013-06-11 02:12:00,
2013-06-10 21:22:00,83.0,65.0,29.67,NW,315,0.0,0.0,55,0.00,,,0.00,,2013-06-11 02:22:00,
2013-06-10 21:32:00,81.0,66.0,29.67,NW,315,0.0,0.0,60,0.00,,,0.00,,2013-06-11 02:32:00,
2013-06-10 21:42:00,79.0,67.0,29.67,NW,315,0.0,0.0,67,0.00,,,0.00,,2013-06-11 02:42:00,
2013-06-10 21:52:00,79.0,67.0,29.67,NW,315,0.0,0.0,67,0.00,,,0.00,,2013-06-11 02:52:00,
2013-06-10 22:02:00,78.0,67.0,29.67,NW,315,0.0,0.0,69,0.00,,,0.00,,2013-06-11 03:02:00,
2013-06-10 22:13:00,78.0,67.0,29.67,NW,315,0.0,0.0,69,0.00,,,0.00,,2013-06-11 03:13:00,
2013-06-10 22:22:00,77.0,68.0,29.68,NW,315,0.0,0.0,73,0.00,,,0.00,,2013-06-11 03:22:00,
2013-06-10 22:32:00,76.0,68.0,29.69,NW,315,0.0,0.0,77,0.00,,,0.00,,2013-06-11 03:32:00,
2013-06-10 22:43:00,76.0,68.0,29.69,NW,315,0.0,0.0,77,0.00,,,0.00,,2013-06-11 03:43:00,
2013-06-10 22:53:00,76.0,68.0,29.69,NW,315,0.0,0.0,77,0.00,,,0.00,,2013-06-11 03:53:00,
2013-06-10 23:03:00,75.0,69.0,29.69,NW,315,0.0,0.0,81,0.00,,,0.00,,2013-06-11 04:03:00,
2013-06-10 23:12:00,75.0,69.0,29.69,NW,315,0.0,0.0,81,0.00,,,0.00,,2013-06-11 04:12:00,
2013-06-10 23:23:00,74.0,68.0,29.70,NW,315,0.0,0.0,83,0.00,,,0.00,,2013-06-11 04:23:00,
2013-06-10 23:33:00,74.0,69.0,29.70,NW,315,0.0,0.0,84,0.00,,,0.00,,2013-06-11 04:33:00,
2013-06-10 23:42:00,74.0,69.0,29.70,NW,315,0.0,0.0,84,0.00,,,0.00,,2013-06-11 04:42:00,
2013-06-10 23:53:00,74.0,69.0,29.70,NW,315,0.0,0.0,84,0.00,,,0.00,,2013-06-11 04:53:00,